Hicks Airfield Weather

No METAR data is available for Hicks Airfield, and nearby Alliance Airport's METAR data is commonly used by area pilots. Weather infomation is also available on 126.925 mhz.

  • Current KAFW METAR
    (5.8nm NE) VFR
    Raw Text: KAFW 122053Z 27003KT 10SM FEW100 SCT180 BKN250 29/16 A2976 RMK AO2 SLP066 T02890156 57016 $
    Wind: 270° @ 3kts
    Visibility: 10.0sm
    Clouds (AGL): FEW at 10000ft
    Temperature: 28.9°C
    Dew Point: 15.6°C
    Altimeter: 29.76 inHg
  • Current KAFW TAF
    (5.8nm NE)
    Raw Text: KAFW 122056Z 1221/1318 24007KT P6SM OVC210 FM130030 06012KT P6SM OVC100 FM130200 02010KT P6SM OVC100 FM130600 36011KT P6SM VCSH OVC100 FM130800 36012KT P6SM VCTS OVC050CB FM131000 36011KT P6SM SCT025 TEMPO 1310/1313 BKN025